createdAt,value
2023-02-11T00:01:30.718Z,47.13
2023-02-11T00:04:00.461Z,46.73
2023-02-11T00:06:31.719Z,47.67
2023-02-11T00:09:00.108Z,46.53
2023-02-11T00:11:30.513Z,43.37
2023-02-11T00:13:59.222Z,44.60
2023-02-11T00:16:27.645Z,45.97
2023-02-11T00:18:55.755Z,42.83
2023-02-11T00:21:26.000Z,44.13
2023-02-11T00:23:57.136Z,44.00
2023-02-11T00:26:27.500Z,47.10
2023-02-11T00:28:57.021Z,44.83
2023-02-11T00:31:25.850Z,45.73
2023-02-11T00:33:54.559Z,45.13
2023-02-11T00:36:24.591Z,43.93
2023-02-11T00:38:55.410Z,43.70
2023-02-11T00:41:24.431Z,43.43
2023-02-11T00:43:53.234Z,45.70
2023-02-11T00:46:22.294Z,42.70
2023-02-11T00:48:51.888Z,40.97
2023-02-11T00:51:22.921Z,39.50
2023-02-11T00:53:51.740Z,42.77
2023-02-11T00:56:21.149Z,42.13
2023-02-11T00:58:49.508Z,42.80
2023-02-11T01:01:18.706Z,40.53
2023-02-11T01:03:46.882Z,43.07
2023-02-11T01:06:14.985Z,43.53
2023-02-11T01:08:43.125Z,48.30
2023-02-11T01:11:15.674Z,41.83
2023-02-11T01:13:49.256Z,42.30
2023-02-11T01:16:19.192Z,42.80
2023-02-11T01:18:47.807Z,44.87
2023-02-11T01:21:18.916Z,50.43
2023-02-11T01:23:46.955Z,47.13
2023-02-11T01:26:14.988Z,40.80
2023-02-11T01:28:43.141Z,42.07
2023-02-11T01:31:12.793Z,39.80
2023-02-11T01:33:40.874Z,45.83
2023-02-11T01:36:09.867Z,43.60
2023-02-11T01:38:38.330Z,39.27
2023-02-11T01:41:09.971Z,38.53
2023-02-11T01:43:40.311Z,41.03
2023-02-11T01:46:24.598Z,39.67
2023-02-11T01:48:56.820Z,37.37
2023-02-11T01:51:28.443Z,37.60
2023-02-11T01:54:15.907Z,40.23
2023-02-11T01:57:06.955Z,37.23
2023-02-11T01:59:40.375Z,40.53
2023-02-11T02:02:12.178Z,38.83
2023-02-11T02:04:43.448Z,35.57
2023-02-11T02:07:15.305Z,38.57
2023-02-11T02:09:49.385Z,36.90
2023-02-11T02:12:17.431Z,37.43
2023-02-11T02:14:45.738Z,34.97
2023-02-11T02:17:30.089Z,37.37
2023-02-11T02:20:32.156Z,36.73
2023-02-11T02:23:28.246Z,34.57
2023-02-11T02:26:26.144Z,32.60
2023-02-11T02:29:18.890Z,39.57
2023-02-11T02:32:04.128Z,36.23
2023-02-11T02:34:40.693Z,37.47
2023-02-11T02:37:16.094Z,34.63
2023-02-11T02:39:46.922Z,36.13
2023-02-11T02:42:15.840Z,40.17
2023-02-11T02:44:49.741Z,35.07
2023-02-11T02:47:17.818Z,35.00
2023-02-11T02:49:47.265Z,33.40
2023-02-11T02:52:29.379Z,33.40
2023-02-11T02:55:25.071Z,35.83
2023-02-11T02:58:22.767Z,34.13
2023-02-11T03:00:57.315Z,43.23
2023-02-11T03:03:33.042Z,38.97
2023-02-11T03:06:06.987Z,32.00
2023-02-11T03:08:40.065Z,33.63
2023-02-11T03:11:10.510Z,35.80
2023-02-11T03:13:40.743Z,35.03
2023-02-11T03:16:13.206Z,32.43
2023-02-11T03:18:45.230Z,31.93
2023-02-11T03:21:17.096Z,38.93
2023-02-11T03:23:50.799Z,31.63
2023-02-11T03:26:26.212Z,33.33
2023-02-11T03:28:59.396Z,32.57
2023-02-11T03:31:32.003Z,32.37
2023-02-11T03:34:08.710Z,32.50
2023-02-11T03:36:47.388Z,32.93
2023-02-11T03:39:20.813Z,31.43
2023-02-11T03:41:50.943Z,33.03
2023-02-11T03:44:20.862Z,30.20
2023-02-11T03:46:51.936Z,37.53
2023-02-11T03:49:23.184Z,31.57
2023-02-11T03:51:54.579Z,34.90
2023-02-11T03:54:28.085Z,33.27
2023-02-11T03:56:58.922Z,31.30
2023-02-11T03:59:27.600Z,32.43
2023-02-11T04:01:57.673Z,31.47
2023-02-11T04:04:25.913Z,29.97
2023-02-11T04:06:55.303Z,33.07
2023-02-11T04:09:23.310Z,29.83
2023-02-11T04:11:51.381Z,28.43
2023-02-11T04:14:19.407Z,32.83
2023-02-11T04:16:47.484Z,30.70
2023-02-11T04:19:15.598Z,30.00
2023-02-11T04:21:43.587Z,32.13
2023-02-11T04:24:13.008Z,29.03
2023-02-11T04:26:41.037Z,31.23
2023-02-11T04:29:09.047Z,28.40
2023-02-11T04:31:37.131Z,31.43
2023-02-11T04:34:05.159Z,27.37
2023-02-11T04:36:33.227Z,29.87
2023-02-11T04:39:01.776Z,31.17
2023-02-11T04:41:31.272Z,35.33
2023-02-11T04:43:59.391Z,29.50
2023-02-11T04:46:27.514Z,29.33
2023-02-11T04:48:55.545Z,29.23
2023-02-11T04:51:23.865Z,31.43
2023-02-11T04:53:51.870Z,32.17
2023-02-11T04:56:19.887Z,26.83
2023-02-11T04:58:49.224Z,27.37
2023-02-11T05:01:17.890Z,31.97
2023-02-11T05:03:46.041Z,31.30
2023-02-11T05:06:14.151Z,27.27
2023-02-11T05:08:42.227Z,29.53
2023-02-11T05:11:16.847Z,29.13
2023-02-11T05:13:45.190Z,31.10
2023-02-11T05:16:15.176Z,30.27
2023-02-11T05:18:44.846Z,31.53
2023-02-11T05:21:15.790Z,32.30
2023-02-11T05:23:44.507Z,29.90
2023-02-11T05:26:13.446Z,27.57
2023-02-11T05:28:42.316Z,28.77
2023-02-11T05:31:11.054Z,29.77
2023-02-11T05:33:40.503Z,32.90
2023-02-11T05:36:10.798Z,28.83
2023-02-11T05:38:39.386Z,27.27
2023-02-11T05:41:08.019Z,31.33
2023-02-11T05:43:36.636Z,31.37
2023-02-11T05:46:05.758Z,26.87
2023-02-11T05:48:34.005Z,31.00
2023-02-11T05:51:03.579Z,33.73
2023-02-11T05:53:31.742Z,30.80
2023-02-11T05:55:59.773Z,25.73
2023-02-11T05:58:27.802Z,29.27
2023-02-11T06:00:55.876Z,27.73
2023-02-11T06:03:23.984Z,33.33
2023-02-11T06:05:52.251Z,33.03
2023-02-11T06:08:21.827Z,33.33
2023-02-11T06:10:49.812Z,34.17
2023-02-11T06:13:18.640Z,34.37
2023-02-11T06:15:47.173Z,34.50
2023-02-11T06:18:15.240Z,27.97
2023-02-11T06:20:43.244Z,35.40
2023-02-11T06:23:11.323Z,39.97
2023-02-11T06:25:40.681Z,33.07
2023-02-11T06:28:10.381Z,33.40
2023-02-11T06:30:38.734Z,34.93
2023-02-11T06:33:06.942Z,34.93
2023-02-11T06:35:35.323Z,32.60
2023-02-11T06:38:03.755Z,37.03
2023-02-11T06:40:31.756Z,34.33
2023-02-11T06:43:01.150Z,44.20
2023-02-11T06:45:29.298Z,36.37
2023-02-11T06:47:57.398Z,35.13
2023-02-11T06:50:25.459Z,35.47
2023-02-11T06:52:53.616Z,37.13
2023-02-11T06:55:21.700Z,31.77
2023-02-11T06:57:50.004Z,38.07
2023-02-11T07:00:20.290Z,33.63
2023-02-11T07:02:48.426Z,39.40
2023-02-11T07:05:16.570Z,33.10
2023-02-11T07:07:44.633Z,38.77
2023-02-11T07:10:12.706Z,35.20
2023-02-11T07:12:41.252Z,36.03
2023-02-11T07:15:09.840Z,39.33
2023-02-11T07:17:39.310Z,34.93
2023-02-11T07:20:08.831Z,34.20
2023-02-11T07:22:37.378Z,34.73
2023-02-11T07:25:05.889Z,38.07
2023-02-11T07:27:34.073Z,31.70
2023-02-11T07:30:02.160Z,31.17
2023-02-11T07:32:30.226Z,37.77
2023-02-11T07:34:59.624Z,37.73
2023-02-11T07:37:28.197Z,38.23
2023-02-11T07:39:56.329Z,35.23
2023-02-11T07:42:24.446Z,33.23
2023-02-11T07:44:52.496Z,32.47
2023-02-11T07:47:20.537Z,39.77
2023-02-11T07:49:48.741Z,33.33
2023-02-11T07:52:18.183Z,34.80
2023-02-11T07:54:46.394Z,32.10
2023-02-11T07:57:14.442Z,30.37
2023-02-11T07:59:42.464Z,32.70
2023-02-11T08:02:10.539Z,32.30
2023-02-11T08:04:38.696Z,32.83
2023-02-11T08:07:06.890Z,30.83
2023-02-11T08:09:36.299Z,41.40
2023-02-11T08:12:04.556Z,33.13
2023-02-11T08:14:33.663Z,31.40
2023-02-11T08:17:01.848Z,33.10
2023-02-11T08:19:30.092Z,32.60
2023-02-11T08:21:59.177Z,30.53
2023-02-11T08:24:27.235Z,30.27
2023-02-11T08:26:56.856Z,29.90
2023-02-11T08:29:25.123Z,31.73
2023-02-11T08:31:53.252Z,31.43
2023-02-11T08:34:22.004Z,30.43
2023-02-11T08:36:50.331Z,28.47
2023-02-11T08:39:22.973Z,29.40
2023-02-11T08:41:53.885Z,28.27
2023-02-11T08:44:24.353Z,33.40
2023-02-11T08:46:52.956Z,30.40
2023-02-11T08:49:22.144Z,33.40
2023-02-11T08:51:51.528Z,29.30
2023-02-11T08:54:19.702Z,28.17
2023-02-11T08:56:51.567Z,29.90
2023-02-11T08:59:19.655Z,30.23
2023-02-11T09:01:49.404Z,29.13
2023-02-11T09:04:17.649Z,32.83
2023-02-11T09:06:46.118Z,27.73
2023-02-11T09:09:16.229Z,28.10
2023-02-11T09:11:45.956Z,27.40
2023-02-11T09:14:19.357Z,33.50
2023-02-11T09:16:49.719Z,27.87
2023-02-11T09:19:18.688Z,30.57
2023-02-11T09:21:47.043Z,30.53
2023-02-11T09:24:15.282Z,27.97
2023-02-11T09:26:44.133Z,29.50
2023-02-11T09:29:12.355Z,27.30
2023-02-11T09:31:40.488Z,28.73
2023-02-11T09:34:11.594Z,31.30
2023-02-11T09:36:41.792Z,31.30
2023-02-11T09:39:13.768Z,29.73
2023-02-11T09:42:12.127Z,31.10
2023-02-11T09:44:40.734Z,30.20
2023-02-11T09:47:27.933Z,30.27
2023-02-11T09:50:01.763Z,34.00
2023-02-11T09:52:38.524Z,31.80
2023-02-11T09:55:15.917Z,30.80
2023-02-11T09:57:43.990Z,29.70
2023-02-11T10:00:23.802Z,30.30
2023-02-11T10:03:38.541Z,29.17
2023-02-11T10:06:29.412Z,31.23
2023-02-11T10:09:07.178Z,31.27
2023-02-11T10:11:47.512Z,28.83
2023-02-11T10:14:32.604Z,30.60
2023-02-11T10:17:11.092Z,30.43
2023-02-11T10:19:52.347Z,30.80
2023-02-11T10:22:26.755Z,30.27
2023-02-11T10:24:58.334Z,29.90
2023-02-11T10:27:30.529Z,31.90
2023-02-11T10:30:03.180Z,32.43
2023-02-11T10:32:38.718Z,33.23
2023-02-11T10:35:16.205Z,29.30
2023-02-11T10:37:46.282Z,31.57
2023-02-11T10:40:16.554Z,32.70
2023-02-11T10:42:48.789Z,34.00
2023-02-11T10:45:23.266Z,30.37
2023-02-11T10:47:51.399Z,31.70
2023-02-11T10:50:24.131Z,29.37
2023-02-11T10:52:53.685Z,30.20
2023-02-11T10:55:27.782Z,35.83
2023-02-11T10:57:59.064Z,30.77
2023-02-11T11:00:37.884Z,32.53
2023-02-11T11:03:08.910Z,29.90
2023-02-11T11:05:39.462Z,30.73
2023-02-11T11:08:10.688Z,29.80
2023-02-11T11:10:44.292Z,29.27
2023-02-11T11:13:32.126Z,31.13
2023-02-11T11:16:18.597Z,29.67
2023-02-11T11:18:48.618Z,30.77
2023-02-11T11:21:21.058Z,32.13
2023-02-11T11:23:54.859Z,31.03
2023-02-11T11:26:23.958Z,32.13
2023-02-11T11:28:58.686Z,26.50
2023-02-11T11:31:31.565Z,30.37
2023-02-11T11:34:02.125Z,27.90
2023-02-11T11:36:37.684Z,28.33
2023-02-11T11:39:21.638Z,30.67
2023-02-11T11:41:55.740Z,26.30
2023-02-11T11:44:30.250Z,33.13
2023-02-11T11:47:23.564Z,31.90
2023-02-11T11:50:12.992Z,29.10
2023-02-11T11:52:47.750Z,27.80
2023-02-11T11:55:21.659Z,26.80
2023-02-11T11:57:50.551Z,33.97
2023-02-11T12:00:21.006Z,26.70
2023-02-11T12:03:25.933Z,31.17
2023-02-11T12:06:08.854Z,31.97
2023-02-11T12:08:48.388Z,26.33
2023-02-11T12:11:27.062Z,26.50
2023-02-11T12:14:08.456Z,26.30
2023-02-11T12:16:45.646Z,22.40
2023-02-11T12:20:00.544Z,27.47
2023-02-11T12:22:42.414Z,26.20
2023-02-11T12:25:26.239Z,24.33
2023-02-11T12:28:04.770Z,22.90
2023-02-11T12:30:50.841Z,22.87
2023-02-11T12:33:33.846Z,22.67
2023-02-11T12:36:09.285Z,24.63
2023-02-11T12:38:52.200Z,24.50
2023-02-11T12:42:04.497Z,28.33
2023-02-11T12:44:42.857Z,21.30
2023-02-11T12:47:18.970Z,20.70
2023-02-11T12:50:05.205Z,22.73
2023-02-11T12:52:45.855Z,23.50
2023-02-11T12:55:22.073Z,23.80
2023-02-11T12:57:51.480Z,23.37
2023-02-11T13:00:24.802Z,20.33
2023-02-11T13:02:57.711Z,20.17
2023-02-11T13:05:30.495Z,23.83
2023-02-11T13:08:05.729Z,22.40
2023-02-11T13:10:36.390Z,23.13
2023-02-11T13:13:19.208Z,19.67
2023-02-11T13:15:52.930Z,20.80
2023-02-11T13:18:49.310Z,20.80
2023-02-11T13:21:30.714Z,21.53
2023-02-11T13:24:09.320Z,22.80
2023-02-11T13:26:44.091Z,20.07
2023-02-11T13:29:21.973Z,21.27
2023-02-11T13:32:06.998Z,18.03
2023-02-11T13:35:00.107Z,19.43
2023-02-11T13:37:33.039Z,23.73
2023-02-11T13:40:02.644Z,21.30
2023-02-11T13:42:32.112Z,21.43
2023-02-11T13:45:00.458Z,24.50
2023-02-11T13:47:33.508Z,21.90
2023-02-11T13:50:03.561Z,20.30
2023-02-11T13:52:37.298Z,24.63
2023-02-11T13:55:10.910Z,23.57
2023-02-11T13:57:40.912Z,18.47
2023-02-11T14:00:49.293Z,25.87
2023-02-11T14:03:45.920Z,22.37
2023-02-11T14:06:35.667Z,20.10
2023-02-11T14:09:28.921Z,22.73
2023-02-11T14:12:35.072Z,20.10
2023-02-11T14:15:24.115Z,17.43
2023-02-11T14:17:52.472Z,25.27
2023-02-11T14:20:44.660Z,18.80
2023-02-11T14:23:27.221Z,22.53
2023-02-11T14:26:07.310Z,24.30
2023-02-11T14:28:36.111Z,21.67
2023-02-11T14:31:10.622Z,19.20
2023-02-11T14:34:05.071Z,20.20
2023-02-11T14:36:59.429Z,21.43
2023-02-11T14:39:41.525Z,23.23
2023-02-11T14:42:18.907Z,19.57
2023-02-11T14:44:49.572Z,18.03
2023-02-11T14:47:21.997Z,21.63
2023-02-11T14:49:50.773Z,22.33
2023-02-11T14:52:27.714Z,17.60
2023-02-11T14:55:08.003Z,25.70
2023-02-11T14:57:37.829Z,24.07
2023-02-11T15:00:15.439Z,23.83
2023-02-11T15:02:45.179Z,22.00
2023-02-11T15:05:22.689Z,23.00
2023-02-11T15:07:54.480Z,20.30
2023-02-11T15:10:30.107Z,21.77
2023-02-11T15:13:00.201Z,22.40
2023-02-11T15:15:29.433Z,21.23
2023-02-11T15:18:02.001Z,17.83
2023-02-11T15:20:33.377Z,21.23
2023-02-11T15:23:05.429Z,21.17
2023-02-11T15:25:34.357Z,18.80
2023-02-11T15:28:02.688Z,23.97
2023-02-11T15:30:34.106Z,18.87
2023-02-11T15:33:05.406Z,21.57
2023-02-11T15:35:36.783Z,20.97
2023-02-11T15:38:06.678Z,23.90
2023-02-11T15:40:36.943Z,25.33
2023-02-11T15:43:06.608Z,21.17
2023-02-11T15:45:36.250Z,20.03
2023-02-11T15:48:10.655Z,22.17
2023-02-11T15:50:40.916Z,30.20
2023-02-11T15:53:23.326Z,22.37
2023-02-11T15:55:53.896Z,23.00
2023-02-11T15:58:23.866Z,19.00
2023-02-11T16:00:59.620Z,28.63
2023-02-11T16:03:32.524Z,28.83
2023-02-11T16:06:19.957Z,21.30
2023-02-11T16:09:04.675Z,22.00
2023-02-11T16:11:34.179Z,24.97
2023-02-11T16:14:06.594Z,22.63
2023-02-11T16:16:36.313Z,19.30
2023-02-11T16:19:06.633Z,22.33
2023-02-11T16:21:39.267Z,18.17
2023-02-11T16:24:17.135Z,19.73
2023-02-11T16:26:49.817Z,23.10
2023-02-11T16:29:21.964Z,19.73
2023-02-11T16:31:50.994Z,19.60
2023-02-11T16:37:07.572Z,18.23
2023-02-11T16:39:37.038Z,19.93
2023-02-11T16:42:07.623Z,17.13
2023-02-11T16:44:36.396Z,23.43
2023-02-11T16:47:07.732Z,22.30
2023-02-11T16:49:39.025Z,21.13
2023-02-11T16:52:08.836Z,17.80
2023-02-11T16:54:38.256Z,18.80
2023-02-11T16:57:14.478Z,22.67
2023-02-11T16:59:42.696Z,20.43
2023-02-11T17:02:16.090Z,29.93
2023-02-11T17:04:45.066Z,24.07
2023-02-11T17:07:13.327Z,25.63
2023-02-11T17:09:42.967Z,26.30
2023-02-11T17:12:11.650Z,16.67
2023-02-11T17:14:39.914Z,21.43
2023-02-11T17:17:08.035Z,22.67
2023-02-11T17:19:36.130Z,17.57
2023-02-11T17:22:04.879Z,21.60
2023-02-11T17:24:33.034Z,19.43
2023-02-11T17:27:02.652Z,25.60
2023-02-11T17:29:30.729Z,18.07
2023-02-11T17:31:58.870Z,20.17
2023-02-11T17:34:29.196Z,17.00
2023-02-11T17:36:57.934Z,21.53
2023-02-11T17:39:26.014Z,14.33
2023-02-11T17:41:54.205Z,25.63
2023-02-11T17:44:23.612Z,19.20
2023-02-11T17:46:51.682Z,14.30
2023-02-11T17:49:20.086Z,22.93
2023-02-11T17:51:48.754Z,20.63
2023-02-11T17:54:18.916Z,22.17
2023-02-11T17:56:50.498Z,12.13
2023-02-11T17:59:18.916Z,17.23
2023-02-11T18:01:48.822Z,18.40
2023-02-11T18:04:19.043Z,21.70
2023-02-11T18:06:47.796Z,23.87
2023-02-11T18:09:15.803Z,20.73
2023-02-11T18:11:43.866Z,20.97
2023-02-11T18:14:12.436Z,18.97
2023-02-11T18:16:42.983Z,18.37
2023-02-11T18:19:13.408Z,19.13
2023-02-11T18:21:41.561Z,17.87
2023-02-11T18:24:10.193Z,18.57
2023-02-11T18:26:38.355Z,21.13
2023-02-11T18:29:07.255Z,16.33
2023-02-11T18:31:36.355Z,24.47
2023-02-11T18:34:05.753Z,20.10
2023-02-11T18:36:35.498Z,23.40
2023-02-11T18:39:04.865Z,18.30
2023-02-11T18:41:33.025Z,22.97
2023-02-11T18:44:03.057Z,21.63
2023-02-11T18:46:31.658Z,22.33
2023-02-11T18:48:59.720Z,20.37
2023-02-11T18:51:27.891Z,21.77
2023-02-11T18:53:57.466Z,19.90
2023-02-11T18:56:27.679Z,22.60
2023-02-11T18:58:57.247Z,21.30
2023-02-11T19:01:27.825Z,25.50
2023-02-11T19:03:57.298Z,17.30
2023-02-11T19:06:27.716Z,17.20
2023-02-11T19:08:59.907Z,17.47
2023-02-11T19:11:43.192Z,17.33
2023-02-11T19:14:11.606Z,15.80
2023-02-11T19:16:40.386Z,20.07
2023-02-11T19:19:09.279Z,16.23
2023-02-11T19:21:37.832Z,21.80
2023-02-11T19:24:08.959Z,17.87
2023-02-11T19:26:37.856Z,19.67
2023-02-11T19:29:06.777Z,21.53
2023-02-11T19:31:35.689Z,18.73
2023-02-11T19:34:04.856Z,18.37
2023-02-11T19:36:33.066Z,21.30
2023-02-11T19:39:02.137Z,21.10
2023-02-11T19:41:33.521Z,19.57
2023-02-11T19:44:02.370Z,21.93
2023-02-11T19:46:34.913Z,23.40
2023-02-11T19:49:03.612Z,20.83
2023-02-11T19:51:33.475Z,21.60
2023-02-11T19:54:01.678Z,16.17
2023-02-11T19:56:31.160Z,22.03
2023-02-11T19:58:59.451Z,24.77
2023-02-11T20:01:27.899Z,21.37
2023-02-11T20:03:57.875Z,16.60
2023-02-11T20:06:28.740Z,20.87
2023-02-11T20:08:58.821Z,20.83
2023-02-11T20:11:28.334Z,20.97
2023-02-11T20:13:58.442Z,22.40
2023-02-11T20:16:44.694Z,20.23
2023-02-11T20:19:17.800Z,14.93
2023-02-11T20:21:48.039Z,19.27
2023-02-11T20:24:16.354Z,22.70
2023-02-11T20:26:45.232Z,23.00
2023-02-11T20:29:15.261Z,20.87
2023-02-11T20:31:43.794Z,20.20
2023-02-11T20:34:12.902Z,27.50
2023-02-11T20:36:41.178Z,24.87
2023-02-11T20:39:09.725Z,25.87
2023-02-11T20:41:39.994Z,23.20
2023-02-11T20:44:11.204Z,24.90
2023-02-11T20:46:42.604Z,23.80
2023-02-11T20:49:12.302Z,31.53
2023-02-11T20:51:41.212Z,25.33
2023-02-11T20:54:13.336Z,25.23
2023-02-11T20:56:41.574Z,26.10
2023-02-11T20:59:10.060Z,32.37
2023-02-11T21:01:41.229Z,27.60
2023-02-11T21:04:12.465Z,22.80
2023-02-11T21:06:43.005Z,28.60
2023-02-11T21:09:14.581Z,20.50
2023-02-11T21:11:43.269Z,25.87
2023-02-11T21:14:12.284Z,26.70
2023-02-11T21:16:42.713Z,26.80
2023-02-11T21:19:10.862Z,31.67
2023-02-11T21:21:39.804Z,30.03
2023-02-11T21:24:09.199Z,27.97
2023-02-11T21:26:38.159Z,25.80
2023-02-11T21:29:07.389Z,26.83
2023-02-11T21:31:36.810Z,32.03
2023-02-11T21:34:06.785Z,23.10
2023-02-11T21:36:35.337Z,21.37
2023-02-11T21:39:04.192Z,23.50
2023-02-11T21:41:32.722Z,27.77
2023-02-11T21:44:00.764Z,22.87
2023-02-11T21:46:29.449Z,31.90
2023-02-11T21:48:58.186Z,31.67
2023-02-11T21:51:27.857Z,25.47
2023-02-11T21:53:56.522Z,29.47
2023-02-11T21:56:26.311Z,27.50
2023-02-11T21:58:55.959Z,27.03
2023-02-11T22:01:25.983Z,28.90
2023-02-11T22:03:54.451Z,23.87
2023-02-11T22:06:26.128Z,28.33
2023-02-11T22:08:56.134Z,24.03
2023-02-11T22:11:25.440Z,30.73
2023-02-11T22:13:55.260Z,32.20
2023-02-11T22:16:23.784Z,25.73
2023-02-11T22:18:51.973Z,26.87
2023-02-11T22:21:21.930Z,26.90
2023-02-11T22:23:50.798Z,28.73
2023-02-11T22:26:22.704Z,25.70
2023-02-11T22:28:51.620Z,25.80
2023-02-11T22:31:22.963Z,23.70
2023-02-11T22:33:51.551Z,25.00
2023-02-11T22:36:22.089Z,24.13
2023-02-11T22:38:51.277Z,24.40
2023-02-11T22:41:21.503Z,24.77
2023-02-11T22:43:49.591Z,26.97
2023-02-11T22:46:19.219Z,28.27
2023-02-11T22:48:48.603Z,28.53
2023-02-11T22:51:19.322Z,25.67
2023-02-11T22:53:51.018Z,26.47
2023-02-11T22:56:21.051Z,29.20
2023-02-11T22:58:49.478Z,25.83
2023-02-11T23:01:18.117Z,27.20
2023-02-11T23:03:46.980Z,20.00
2023-02-11T23:06:15.395Z,28.70
2023-02-11T23:08:43.929Z,25.00
2023-02-11T23:11:14.792Z,22.33
2023-02-11T23:13:45.809Z,22.87
2023-02-11T23:16:16.327Z,24.27
2023-02-11T23:18:46.434Z,26.80
2023-02-11T23:21:17.827Z,25.63
2023-02-11T23:23:46.699Z,28.90
2023-02-11T23:26:16.962Z,25.00
2023-02-11T23:28:47.413Z,25.07
2023-02-11T23:31:18.890Z,20.87
2023-02-11T23:33:48.511Z,25.60
2023-02-11T23:36:17.630Z,24.33
2023-02-11T23:38:46.353Z,21.00
2023-02-11T23:41:15.477Z,27.10
2023-02-11T23:43:43.941Z,24.90
2023-02-11T23:46:13.444Z,19.67
2023-02-11T23:48:41.586Z,26.07
2023-02-11T23:51:10.655Z,21.80
2023-02-11T23:53:40.565Z,23.87
2023-02-11T23:56:10.936Z,22.93
2023-02-11T23:58:39.256Z,24.23
